Main page
METAR-TAF:

METAR-TAF

Airports :

Chautauqua County/Dunkirk Airport

Dunkirk, New York, United States

latitude: 42-29-35N, longitude: 079-16-33W, elevation: 211 m

Current weather observation

The report was made 1 hour and 5 minutes ago, at 09:53 UTC
Wind 3 kt from the South
Temperature 11°C
Humidity 87%
Pressure 1020 hPa
Visibility: 16.1 km
Clear sky

METAR: KDKK 150953Z AUTO 18003KT 10SM CLR 11/09 A3012 RMK AO2 SLP196 T01110089

Time: 06:58 (10:58 UTC)


TAF: missing

Weather observations and forecasts of more than 4000 airports (METAR and TAF reports).

The available stations are represented by yellow and red dots on the map.

Hover mouse over dot to see the name of the station.

Then click to see weather observations and forecasts.

To change the map : click on the green buttons with a black cross to zoom in, on the green button with a dash to zoom out, or on the green arrows for adjacent maps.


METAR-TAF: